Airfield :







YOU CAN JOIN US ON...

 
LOGIN :

Register | Disclaimer

   EN    FR    IT 

 









Legend :    VFR   Marginal VFR   IFR   Intensive IFR   Very Intensive IFR
Visi :
Ceiling :
>= 8 km
>= 3000ft
5 to 8 km
1000 to 3000 ft
1500m to 5 km
500 to 1000 ft
800 to 1500m
200 to 500 ft
< 800m
< 200 ft
Symbols :   Thunderstorms  Fog  Heavy snow  Heavy precipitations  Wind > 20 kt






- Airport Elevation : 110 ft
- IATA code : YFB


CYFB - Iqaluit

CURRENT METAR :
  • 110000Z 33016KT 4SM -SN DRSN BKN032 OVC044 M15/M18 A2948 RMK SN3SC2SC3 VIS N LWR SLP988

EXPIRED METARs :
  • 102348Z 32015G21KT 5SM -SN DRSN SCT032 OVC044 M16/M19 A2948 RMK SN1SC2SC5 SLP990
  • 102300Z 31014KT 15SM -SN DRSN OVC047 M16/M20 A2950 RMK SC8 SLP995
  • 102200Z 30013KT 15SM -SN DRSN BKN049 M17/M20 A2951 RMK SC7 SLP000

TAF TAF CYFB
Valid from the 11 at 00:00 until the 12 at 00:00 UTC


102339Z 1100/1124 31012KT P6SM FEW020 BKN050
TEMPO 1100/1115 4SM -SN
FM111500 33018KT 5SM -SN SCT020 BKN040 RMK NXT FCST BY 110600Z



MET'MAP, your aeronautical weather chart ! - Copyright ORBIFLY December 2007 - Disclaimer

ORBIFLY MET'MAP TEAM :

Programming & Development : Alexandra Zaïnal
Concept & original design : Baudouin d'Aumeries
Assistance for programming : Marc-Olivier Méhu
Technical & hardware support : Manuel Goepfert

Contact : metmap@orbifly.com




SOURCES & CREDITS :

   NOAA